Portada
METAR-TAF:

METAR-TAF

Aeropuertos :

Aeropuerto Internacional de Bagdad

Bagdad, Iraq

latitud: 33-15-45N, longitud: 44-14-04E, altitud: 35 m

Observación

El informe se hizo hace 1 hora y 1 minutos, a las 10:00 UTC
Viento 8 kt del oeste
Temperatura 16°C
Humedad 55%
Presión 1016 hPa
Visibilidad 10 km o más
Cielo nuboso a una altura de 3000 ft

METAR: ORBI 191000Z 26008KT 9999 BKN030 16/07 Q1016 NOSIG

Hora: 14:01 (11:01 UTC)

Pronóstico

El informe se hizo hace 7 horas y 1 minutos, a las 04:00 UTC
Pronóstico válido del 19 a las 06 UTC al 20 a las 06 UTC
Viento 6 kt del oeste-noroeste
Visibilidad: 8000 m

TAF: ORBI 190400Z 1906/2006 30006KT 8000 NSC

Observaciones y pronósticos meteorológicos de más de 4000 aeropuertos (mensajes METAR y TAF).

Los puntos amarillos y rojos representan las estaciones disponibles.

Ponga el ratón en el punto deseado para ver el nombre de la estación.

Haga clic para ver las observaciones y los pronósticos meteorológicos.

Para cambiar el mapa : haga clic en los botones verdes con una cruz de color negro para hacer un zoom, en el botón verde con un guión para alejar o en las flechas verdes para mapas adyacentes.


METAR-TAF: